createdAt,value
2018-07-08T00:01:45.992Z,99.90
2018-07-08T00:04:15.835Z,99.90
2018-07-08T00:06:45.473Z,99.90
2018-07-08T00:09:14.864Z,99.90
2018-07-08T00:11:45.195Z,99.90
2018-07-08T00:14:14.628Z,99.90
2018-07-08T00:16:43.959Z,99.90
2018-07-08T00:19:13.364Z,99.90
2018-07-08T00:21:42.768Z,99.90
2018-07-08T00:24:12.161Z,99.90
2018-07-08T00:26:41.616Z,99.90
2018-07-08T00:29:11.055Z,99.90
2018-07-08T00:31:40.568Z,99.90
2018-07-08T00:34:10.016Z,99.90
2018-07-08T00:36:39.461Z,99.90
2018-07-08T00:39:09.299Z,99.90
2018-07-08T00:41:38.700Z,99.90
2018-07-08T00:44:08.542Z,99.90
2018-07-08T00:46:37.931Z,99.90
2018-07-08T00:49:07.475Z,99.90
2018-07-08T00:51:36.951Z,99.90
2018-07-08T00:54:06.468Z,99.90
2018-07-08T00:56:35.811Z,99.90
2018-07-08T00:59:05.175Z,99.90
2018-07-08T01:01:34.641Z,99.90
2018-07-08T01:04:04.019Z,99.90
2018-07-08T01:06:33.460Z,99.90
2018-07-08T01:09:02.964Z,99.90
2018-07-08T01:11:32.346Z,99.90
2018-07-08T01:14:01.816Z,99.90
2018-07-08T01:16:31.227Z,99.90
2018-07-08T01:19:00.615Z,99.90
2018-07-08T01:21:30.044Z,99.90
2018-07-08T01:23:59.475Z,99.90
2018-07-08T01:26:28.928Z,99.90
2018-07-08T01:28:58.433Z,99.90
2018-07-08T01:31:27.826Z,99.90
2018-07-08T01:33:57.163Z,99.90
2018-07-08T01:36:26.576Z,99.90
2018-07-08T01:38:56.110Z,99.90
2018-07-08T01:41:25.582Z,99.90
2018-07-08T01:43:55.044Z,99.90
2018-07-08T01:46:24.343Z,99.90
2018-07-08T01:48:53.626Z,99.90
2018-07-08T01:51:23.048Z,99.90
2018-07-08T01:53:52.776Z,99.90
2018-07-08T01:56:24.288Z,99.90
2018-07-08T01:58:53.803Z,99.90
2018-07-08T02:01:23.348Z,99.90
2018-07-08T02:03:53.526Z,99.90
2018-07-08T02:06:23.244Z,99.90
2018-07-08T02:08:52.679Z,99.90
2018-07-08T02:11:22.686Z,99.90
2018-07-08T02:13:54.675Z,99.90
2018-07-08T02:16:24.665Z,99.90
2018-07-08T02:18:54.132Z,99.90
2018-07-08T02:21:24.191Z,99.90
2018-07-08T02:23:53.980Z,99.90
2018-07-08T02:26:23.790Z,99.90
2018-07-08T02:28:53.229Z,99.90
2018-07-08T02:31:22.846Z,99.90
2018-07-08T02:33:52.811Z,99.90
2018-07-08T02:36:22.411Z,99.90
2018-07-08T02:38:52.099Z,99.90
2018-07-08T02:41:21.835Z,99.90
2018-07-08T02:43:51.371Z,99.90
2018-07-08T02:46:21.078Z,99.90
2018-07-08T02:48:51.220Z,99.90
2018-07-08T02:51:20.797Z,99.90
2018-07-08T02:53:50.234Z,99.90
2018-07-08T02:56:19.766Z,99.90
2018-07-08T02:58:49.976Z,99.90
2018-07-08T03:01:19.312Z,99.90
2018-07-08T03:03:49.088Z,99.90
2018-07-08T03:06:18.600Z,99.90
2018-07-08T03:08:47.957Z,99.90
2018-07-08T03:11:17.804Z,99.90
2018-07-08T03:13:47.269Z,99.90
2018-07-08T03:16:16.623Z,99.90
2018-07-08T03:18:45.992Z,99.90
2018-07-08T03:21:15.388Z,99.90
2018-07-08T03:23:44.758Z,99.90
2018-07-08T03:26:14.287Z,99.90
2018-07-08T03:28:43.667Z,99.90
2018-07-08T03:31:13.151Z,99.90
2018-07-08T03:33:45.679Z,99.90
2018-07-08T03:36:15.225Z,99.90
2018-07-08T03:38:44.835Z,99.90
2018-07-08T03:41:14.223Z,99.90
2018-07-08T03:43:43.745Z,99.90
2018-07-08T03:46:13.407Z,99.90
2018-07-08T03:48:43.027Z,99.90
2018-07-08T03:51:12.498Z,99.90
2018-07-08T03:53:42.260Z,99.90
2018-07-08T03:56:11.547Z,99.90
2018-07-08T03:58:41.067Z,99.90
2018-07-08T04:01:10.576Z,99.90
2018-07-08T04:03:40.015Z,99.90
2018-07-08T04:06:09.520Z,99.90
2018-07-08T04:08:39.015Z,99.90
2018-07-08T04:11:08.514Z,99.90
2018-07-08T04:13:37.923Z,99.90
2018-07-08T04:16:08.696Z,99.90
2018-07-08T04:18:38.149Z,99.90
2018-07-08T04:21:08.029Z,99.90
2018-07-08T04:23:37.369Z,99.90
2018-07-08T04:26:06.700Z,99.90
2018-07-08T04:28:36.019Z,99.90
2018-07-08T04:31:05.371Z,99.90
2018-07-08T04:33:34.664Z,99.90
2018-07-08T04:36:04.115Z,99.90
2018-07-08T04:38:33.462Z,99.90
2018-07-08T04:41:02.792Z,99.90
2018-07-08T04:43:32.087Z,99.90
2018-07-08T04:46:01.420Z,99.90
2018-07-08T04:48:30.768Z,99.90
2018-07-08T04:51:00.138Z,99.90
2018-07-08T04:53:29.458Z,99.90
2018-07-08T04:55:58.815Z,99.90
2018-07-08T04:58:28.058Z,99.30
2018-07-08T05:00:57.478Z,98.80
2018-07-08T05:03:26.735Z,97.30
2018-07-08T05:05:56.007Z,96.00
2018-07-08T05:08:25.307Z,94.50
2018-07-08T05:10:55.283Z,93.00
2018-07-08T05:13:24.803Z,92.50
2018-07-08T05:15:54.141Z,90.80
2018-07-08T05:18:24.538Z,91.10
2018-07-08T05:20:53.838Z,90.30
2018-07-08T05:23:23.879Z,90.00
2018-07-08T05:25:53.173Z,88.80
2018-07-08T05:28:22.522Z,86.30
2018-07-08T05:30:51.897Z,84.50
2018-07-08T05:33:21.266Z,83.60
2018-07-08T05:35:50.640Z,83.50
2018-07-08T05:38:19.955Z,83.40
2018-07-08T05:40:49.247Z,81.00
2018-07-08T05:43:18.707Z,81.20
2018-07-08T05:45:48.132Z,78.10
2018-07-08T05:48:17.448Z,78.20
2018-07-08T05:53:15.646Z,75.60
2018-07-08T05:55:44.935Z,74.80
2018-07-08T05:58:14.441Z,72.00
2018-07-08T06:00:44.855Z,71.00
2018-07-08T06:03:14.313Z,70.90
2018-07-08T06:05:43.610Z,68.50
2018-07-08T06:08:13.697Z,69.00
2018-07-08T06:10:43.102Z,68.90
2018-07-08T06:13:12.735Z,67.40
2018-07-08T06:15:42.140Z,66.40
2018-07-08T06:18:11.630Z,64.20
2018-07-08T06:20:40.948Z,64.20
2018-07-08T06:23:10.250Z,63.90
2018-07-08T06:25:39.695Z,66.30
2018-07-08T06:28:09.008Z,66.20
2018-07-08T06:30:38.451Z,66.30
2018-07-08T06:33:07.939Z,66.80
2018-07-08T06:35:37.354Z,66.60
2018-07-08T06:38:06.763Z,63.10
2018-07-08T06:40:36.381Z,64.00
2018-07-08T06:43:05.792Z,63.70
2018-07-08T06:45:35.631Z,63.10
2018-07-08T06:48:04.980Z,64.80
2018-07-08T06:50:34.390Z,65.70
2018-07-08T06:53:03.979Z,61.80
2018-07-08T06:55:33.351Z,60.80
2018-07-08T06:58:02.780Z,61.70
2018-07-08T07:00:32.428Z,58.20
2018-07-08T07:03:01.987Z,58.00
2018-07-08T07:05:31.959Z,57.20
2018-07-08T07:08:01.463Z,56.70
2018-07-08T07:10:31.565Z,57.40
2018-07-08T07:13:01.132Z,57.80
2018-07-08T07:15:30.444Z,58.00
2018-07-08T07:17:59.812Z,57.50
2018-07-08T07:20:29.328Z,56.60
2018-07-08T07:22:58.729Z,56.30
2018-07-08T07:25:28.092Z,53.50
2018-07-08T07:27:57.500Z,53.20
2018-07-08T07:30:26.796Z,53.10
2018-07-08T07:32:56.132Z,52.70
2018-07-08T07:35:25.666Z,53.50
2018-07-08T07:37:55.100Z,50.30
2018-07-08T07:40:24.536Z,51.60
2018-07-08T07:42:53.811Z,51.00
2018-07-08T07:45:23.240Z,48.50
2018-07-08T07:47:52.584Z,47.50
2018-07-08T07:50:21.876Z,48.50
2018-07-08T07:52:51.255Z,49.00
2018-07-08T07:55:20.567Z,48.30
2018-07-08T07:57:49.916Z,48.70
2018-07-08T08:00:19.415Z,48.60
2018-07-08T08:02:48.700Z,48.80
2018-07-08T08:05:18.143Z,51.50
2018-07-08T08:12:45.454Z,47.50
2018-07-08T08:15:15.025Z,48.00
2018-07-08T08:17:44.458Z,48.00
2018-07-08T08:20:13.811Z,46.90
2018-07-08T08:22:44.163Z,47.60
2018-07-08T08:25:13.577Z,45.60
2018-07-08T08:27:42.979Z,46.60
2018-07-08T08:30:12.411Z,47.90
2018-07-08T08:32:41.916Z,44.80
2018-07-08T08:35:15.810Z,44.30
2018-07-08T08:37:47.242Z,44.30
2018-07-08T08:40:17.611Z,44.10
2018-07-08T08:42:46.987Z,44.60
2018-07-08T08:45:18.345Z,42.90
2018-07-08T08:47:47.841Z,44.80
2018-07-08T08:50:17.307Z,44.80
2018-07-08T08:52:46.772Z,42.10
2018-07-08T08:55:16.179Z,40.70
2018-07-08T08:57:45.531Z,42.10
2018-07-08T09:00:17.775Z,40.90
2018-07-08T09:02:47.475Z,44.10
2018-07-08T09:05:16.950Z,45.00
2018-07-08T09:07:46.428Z,43.40
2018-07-08T09:10:15.955Z,43.10
2018-07-08T09:12:45.254Z,41.80
2018-07-08T09:15:14.747Z,43.00
2018-07-08T09:17:44.208Z,43.40
2018-07-08T09:20:13.884Z,41.70
2018-07-08T09:22:43.276Z,44.00
2018-07-08T09:25:12.692Z,42.20
2018-07-08T09:27:42.151Z,42.80
2018-07-08T09:32:40.795Z,42.20
2018-07-08T09:35:10.308Z,42.80
2018-07-08T09:37:39.812Z,41.80
2018-07-08T09:40:09.250Z,41.40
2018-07-08T09:47:36.719Z,37.40
2018-07-08T09:50:06.409Z,40.30
2018-07-08T09:52:35.855Z,40.70
2018-07-08T09:55:05.371Z,41.90
2018-07-08T09:57:34.746Z,41.10
2018-07-08T10:00:04.880Z,40.40
2018-07-08T10:02:34.208Z,40.10
2018-07-08T10:05:03.684Z,41.20
2018-07-08T10:07:33.056Z,41.20
2018-07-08T10:10:02.333Z,42.60
2018-07-08T10:12:31.618Z,41.90
2018-07-08T10:15:00.996Z,39.60
2018-07-08T10:17:30.409Z,40.00
2018-07-08T10:19:59.710Z,40.40
2018-07-08T10:22:29.059Z,40.30
2018-07-08T10:24:58.361Z,40.50
2018-07-08T10:27:40.676Z,39.90
2018-07-08T10:30:10.411Z,39.80
2018-07-08T10:32:39.715Z,41.30
2018-07-08T10:35:19.089Z,40.70
2018-07-08T10:37:48.411Z,40.90
2018-07-08T10:40:17.880Z,42.30
2018-07-08T10:42:47.370Z,40.10
2018-07-08T10:47:49.547Z,40.40
2018-07-08T10:50:18.985Z,40.00
2018-07-08T10:52:48.523Z,42.60
2018-07-08T10:55:18.301Z,40.20
2018-07-08T10:57:47.815Z,40.30
2018-07-08T11:00:17.197Z,38.70
2018-07-08T11:02:47.008Z,40.90
2018-07-08T11:05:16.748Z,39.50
2018-07-08T11:07:46.295Z,40.80
2018-07-08T11:10:15.733Z,43.60
2018-07-08T11:12:45.159Z,40.70
2018-07-08T11:15:14.522Z,40.40
2018-07-08T11:17:44.150Z,40.90
2018-07-08T11:20:13.515Z,42.40
2018-07-08T11:22:43.043Z,42.40
2018-07-08T11:25:12.687Z,43.30
2018-07-08T11:27:42.092Z,43.10
2018-07-08T11:30:11.411Z,42.40
2018-07-08T11:35:10.135Z,43.90
2018-07-08T11:37:39.550Z,42.70
2018-07-08T11:40:09.237Z,41.50
2018-07-08T11:42:38.843Z,41.50
2018-07-08T11:47:37.225Z,44.10
2018-07-08T11:50:06.816Z,42.60
2018-07-08T11:52:36.128Z,43.20
2018-07-08T11:55:05.567Z,44.30
2018-07-08T11:57:35.051Z,44.90
2018-07-08T12:00:05.051Z,45.20
2018-07-08T12:02:34.491Z,47.80
2018-07-08T12:05:04.127Z,46.70
2018-07-08T12:07:33.495Z,46.00
2018-07-08T12:10:03.182Z,48.00
2018-07-08T12:12:32.839Z,44.80
2018-07-08T12:15:02.420Z,45.00
2018-07-08T12:17:31.945Z,44.60
2018-07-08T12:20:01.351Z,47.50
2018-07-08T12:22:31.381Z,47.50
2018-07-08T12:25:00.906Z,44.50
2018-07-08T12:27:30.343Z,44.10
2018-07-08T12:29:59.697Z,46.20
2018-07-08T12:32:29.227Z,46.40
2018-07-08T12:34:58.803Z,44.10
2018-07-08T12:37:28.300Z,43.40
2018-07-08T12:39:57.655Z,44.60
2018-07-08T12:42:27.282Z,44.20
2018-07-08T12:44:57.373Z,44.10
2018-07-08T12:47:26.649Z,43.10
2018-07-08T12:49:56.098Z,47.00
2018-07-08T12:52:25.406Z,43.60
2018-07-08T12:54:54.988Z,44.40
2018-07-08T12:57:24.256Z,43.50
2018-07-08T12:59:53.627Z,43.80
2018-07-08T13:02:22.907Z,42.40
2018-07-08T13:04:52.335Z,45.00
2018-07-08T13:07:21.762Z,42.40
2018-07-08T13:09:51.222Z,42.70
2018-07-08T13:12:20.553Z,40.80
2018-07-08T13:14:49.860Z,42.80
2018-07-08T13:17:19.201Z,43.40
2018-07-08T13:19:48.508Z,43.40
2018-07-08T13:22:17.999Z,43.10
2018-07-08T13:24:47.393Z,43.60
2018-07-08T13:27:16.712Z,42.70
2018-07-08T13:32:15.285Z,44.40
2018-07-08T13:34:44.557Z,43.30
2018-07-08T13:46:40.610Z,43.30
2018-07-08T13:52:24.572Z,42.90
2018-07-08T13:54:54.150Z,43.80
2018-07-08T13:57:24.112Z,45.00
2018-07-08T13:59:53.394Z,44.40
2018-07-08T14:02:22.709Z,44.60
2018-07-08T14:04:52.229Z,45.30
2018-07-08T14:07:21.612Z,44.40
2018-07-08T14:09:51.480Z,45.20
2018-07-08T14:12:20.768Z,44.40
2018-07-08T14:14:50.242Z,46.90
2018-07-08T14:17:19.621Z,47.40
2018-07-08T14:19:48.956Z,48.10
2018-07-08T14:22:18.636Z,47.90
2018-07-08T14:27:16.709Z,49.50
2018-07-08T14:29:46.003Z,48.90
2018-07-08T14:32:15.330Z,49.90
2018-07-08T14:34:44.728Z,50.30
2018-07-08T14:37:14.038Z,50.30
2018-07-08T14:39:43.427Z,50.70
2018-07-08T14:42:12.708Z,53.20
2018-07-08T14:44:42.149Z,52.00
2018-07-08T14:47:11.608Z,51.30
2018-07-08T14:49:40.979Z,51.30
2018-07-08T14:52:10.330Z,52.10
2018-07-08T14:54:39.690Z,51.90
2018-07-08T14:57:09.021Z,51.30
2018-07-08T14:59:38.386Z,51.40
2018-07-08T15:02:07.683Z,52.80
2018-07-08T15:04:37.500Z,51.70
2018-07-08T15:07:06.923Z,52.20
2018-07-08T15:09:36.275Z,52.70
2018-07-08T15:12:05.619Z,53.10
2018-07-08T15:14:34.934Z,52.60
2018-07-08T15:17:04.198Z,54.60
2018-07-08T15:19:33.618Z,54.20
2018-07-08T15:22:03.009Z,54.30
2018-07-08T15:24:32.868Z,53.00
2018-07-08T15:27:02.232Z,53.90
2018-07-08T15:29:31.904Z,53.40
2018-07-08T15:32:01.336Z,54.70
2018-07-08T15:34:30.569Z,52.70
2018-07-08T15:36:59.918Z,53.30
2018-07-08T15:39:29.565Z,56.00
2018-07-08T15:41:59.011Z,54.90
2018-07-08T15:44:28.517Z,56.40
2018-07-08T15:46:57.971Z,54.80
2018-07-08T15:51:56.177Z,54.20
2018-07-08T15:56:54.961Z,53.20
2018-07-08T15:59:24.479Z,53.80
2018-07-08T16:01:53.787Z,55.60
2018-07-08T16:04:23.205Z,54.80
2018-07-08T16:06:52.538Z,56.70
2018-07-08T16:09:21.999Z,55.20
2018-07-08T16:11:51.424Z,54.60
2018-07-08T16:14:20.738Z,54.40
2018-07-08T16:16:50.041Z,53.50
2018-07-08T16:19:19.600Z,53.80
2018-07-08T16:21:49.100Z,55.30
2018-07-08T16:24:18.501Z,56.20
2018-07-08T16:26:47.819Z,57.40
2018-07-08T16:29:17.236Z,55.80
2018-07-08T16:31:46.616Z,55.50
2018-07-08T16:34:16.097Z,55.60
2018-07-08T16:36:45.570Z,56.20
2018-07-08T16:39:15.259Z,55.90
2018-07-08T16:41:44.695Z,56.00
2018-07-08T16:44:14.315Z,56.70
2018-07-08T16:46:43.911Z,57.10
2018-07-08T16:49:13.482Z,56.70
2018-07-08T16:51:43.132Z,57.60
2018-07-08T16:54:12.565Z,57.70
2018-07-08T16:56:43.010Z,58.20
2018-07-08T16:59:12.450Z,57.60
2018-07-08T17:01:42.060Z,57.10
2018-07-08T17:04:11.609Z,57.80
2018-07-08T17:06:41.079Z,57.40
2018-07-08T17:09:11.154Z,58.00
2018-07-08T17:11:40.619Z,58.20
2018-07-08T17:14:10.082Z,57.10
2018-07-08T17:16:39.423Z,57.20
2018-07-08T17:19:08.772Z,58.00
2018-07-08T17:21:39.139Z,58.70
2018-07-08T17:24:08.544Z,59.20
2018-07-08T17:26:38.195Z,59.00
2018-07-08T17:29:07.407Z,58.90
2018-07-08T17:31:37.232Z,60.90
2018-07-08T17:34:06.701Z,60.00
2018-07-08T17:36:36.295Z,59.80
2018-07-08T17:39:07.016Z,60.10
2018-07-08T17:41:36.902Z,60.00
2018-07-08T17:44:07.188Z,61.00
2018-07-08T17:46:36.827Z,60.40
2018-07-08T17:49:06.194Z,60.80
2018-07-08T17:51:36.475Z,61.70
2018-07-08T17:54:06.157Z,61.60
2018-07-08T17:56:35.800Z,62.00
2018-07-08T17:59:05.190Z,63.20
2018-07-08T18:01:34.706Z,61.70
2018-07-08T18:04:04.724Z,61.70
2018-07-08T18:09:04.649Z,62.80
2018-07-08T18:11:35.788Z,64.80
2018-07-08T18:14:06.002Z,63.50
2018-07-08T18:16:35.593Z,64.70
2018-07-08T18:19:04.961Z,64.60
2018-07-08T18:21:34.259Z,66.10
2018-07-08T18:24:03.992Z,64.90
2018-07-08T18:26:33.883Z,66.50
2018-07-08T18:29:03.491Z,66.00
2018-07-08T18:31:32.828Z,66.40
2018-07-08T18:34:02.501Z,67.80
2018-07-08T18:36:31.945Z,69.80
2018-07-08T18:39:04.358Z,68.60
2018-07-08T18:41:33.912Z,69.10
2018-07-08T18:44:03.682Z,68.70
2018-07-08T18:46:33.507Z,68.70
2018-07-08T18:49:02.935Z,69.70
2018-07-08T18:51:32.604Z,70.00
2018-07-08T18:54:02.808Z,71.20
2018-07-08T18:56:32.275Z,71.70
2018-07-08T18:59:01.723Z,72.80
2018-07-08T19:01:31.253Z,73.00
2018-07-08T19:04:02.351Z,73.80
2018-07-08T19:06:31.887Z,74.10
2018-07-08T19:09:01.896Z,73.50
2018-07-08T19:11:31.809Z,75.80
2018-07-08T19:14:02.004Z,75.90
2018-07-08T19:16:31.908Z,76.80
2018-07-08T19:19:01.448Z,76.70
2018-07-08T19:21:30.863Z,77.70
2018-07-08T19:24:00.512Z,79.10
2018-07-08T19:26:30.741Z,80.80
2018-07-08T19:29:00.946Z,80.70
2018-07-08T19:31:30.397Z,79.60
2018-07-08T19:34:00.009Z,80.80
2018-07-08T19:36:29.555Z,82.50
2018-07-08T19:38:59.069Z,81.70
2018-07-08T19:41:28.547Z,83.70
2018-07-08T19:43:58.221Z,86.00
2018-07-08T19:46:28.325Z,87.90
2018-07-08T19:48:58.776Z,88.90
2018-07-08T19:51:28.290Z,90.80
2018-07-08T19:53:58.139Z,90.60
2018-07-08T19:56:28.177Z,90.90
2018-07-08T19:58:58.782Z,92.10
2018-07-08T20:01:28.537Z,92.60
2018-07-08T20:03:58.119Z,93.50
2018-07-08T20:06:27.916Z,94.30
2018-07-08T20:08:58.295Z,94.90
2018-07-08T20:11:27.692Z,96.00
2018-07-08T20:13:57.437Z,96.70
2018-07-08T20:16:28.026Z,96.70
2018-07-08T20:18:57.521Z,96.80
2018-07-08T20:21:28.406Z,97.50
2018-07-08T20:23:58.234Z,98.50
2018-07-08T20:26:27.742Z,99.30
2018-07-08T20:28:57.282Z,99.90
2018-07-08T20:33:55.900Z,99.90
2018-07-08T20:36:26.262Z,99.90
2018-07-08T20:38:55.808Z,99.90
2018-07-08T20:41:25.735Z,99.90
2018-07-08T20:43:55.108Z,99.90
2018-07-08T20:46:24.599Z,99.90
2018-07-08T20:48:54.216Z,99.90
2018-07-08T20:51:23.814Z,99.90
2018-07-08T20:53:53.329Z,99.90
2018-07-08T20:56:22.922Z,99.90
2018-07-08T20:58:52.988Z,99.90
2018-07-08T21:01:22.833Z,99.90
2018-07-08T21:03:52.256Z,99.90
2018-07-08T21:06:21.944Z,99.90
2018-07-08T21:08:51.612Z,99.90
2018-07-08T21:11:21.041Z,99.90
2018-07-08T21:13:50.578Z,99.90
2018-07-08T21:16:20.364Z,99.90
2018-07-08T21:18:49.849Z,99.90
2018-07-08T21:21:19.423Z,99.90
2018-07-08T21:23:49.788Z,99.90
2018-07-08T21:26:19.263Z,99.90
2018-07-08T21:28:49.563Z,99.90
2018-07-08T21:31:19.047Z,99.90
2018-07-08T21:33:49.381Z,99.90
2018-07-08T21:36:19.062Z,99.90
2018-07-08T21:38:48.556Z,99.90
2018-07-08T21:41:18.348Z,99.90
2018-07-08T21:43:47.731Z,99.90
2018-07-08T21:46:18.097Z,99.90
2018-07-08T21:48:47.651Z,99.90
2018-07-08T21:51:17.314Z,99.90
2018-07-08T21:53:47.430Z,99.90
2018-07-08T21:56:16.788Z,99.90
2018-07-08T21:58:47.051Z,99.90
2018-07-08T22:01:17.903Z,99.90
2018-07-08T22:03:47.808Z,99.90
2018-07-08T22:06:17.823Z,99.90
2018-07-08T22:08:47.431Z,99.90
2018-07-08T22:11:16.873Z,99.90
2018-07-08T22:26:45.869Z,99.90
2018-07-08T22:29:15.255Z,99.90
2018-07-08T22:31:44.662Z,99.90
2018-07-08T22:34:14.245Z,99.90
2018-07-08T22:36:44.571Z,99.90
2018-07-08T22:39:14.004Z,99.90
2018-07-08T22:41:43.366Z,99.90
2018-07-08T22:44:12.757Z,99.90
2018-07-08T22:46:42.289Z,99.90
2018-07-08T22:49:11.840Z,99.90
2018-07-08T22:51:41.142Z,99.90
2018-07-08T22:54:10.501Z,99.90
2018-07-08T22:56:39.989Z,99.90
2018-07-08T22:59:09.287Z,99.90
2018-07-08T23:02:45.114Z,99.90
2018-07-08T23:05:15.108Z,99.90
2018-07-08T23:07:44.575Z,99.90
2018-07-08T23:10:14.109Z,99.90
2018-07-08T23:15:12.644Z,99.90
2018-07-08T23:17:45.208Z,99.90
2018-07-08T23:20:14.813Z,99.90
2018-07-08T23:22:55.933Z,99.90
2018-07-08T23:25:25.579Z,99.90
2018-07-08T23:27:55.088Z,99.90
2018-07-08T23:30:24.392Z,99.90
2018-07-08T23:32:53.707Z,99.90
2018-07-08T23:35:22.986Z,99.90
2018-07-08T23:37:52.315Z,99.90
2018-07-08T23:40:21.691Z,99.90
2018-07-08T23:42:51.272Z,99.90
2018-07-08T23:45:21.346Z,99.90
2018-07-08T23:47:50.642Z,99.90
2018-07-08T23:50:19.922Z,99.90
2018-07-08T23:52:49.491Z,99.90
2018-07-08T23:55:18.850Z,99.90
2018-07-08T23:57:48.218Z,99.90
